Terminal Aerodrome Forecast
Issued by NWS

Home | Current Version | Previous Version | Text Only | Print | Product List | Glossary On
Versions: 1 2 3 4 5 6 7 8 9 10 11 12
400
FTUS45 KRIW 310531
TAFBPI
TAF
KBPI 310531Z 3106/0106 VRB06KT P6SM SCT120
     FM311700 26008KT P6SM VCSH SCT100
     FM312000 30011G18KT P6SM VCTS SCT080CB BKN120
     FM010200 34008KT P6SM FEW120=

USA.gov is the U.S. government's official web portal to all federal, state and local government web resources and services.